sensor_id;sensor_type;location;lat;lon;timestamp;temperature;humidity
33139;DHT22;19501;50.948;5.316;2023-10-31T00:01:51;10.70;99.90
33139;DHT22;19501;50.948;5.316;2023-10-31T00:04:17;10.70;99.90
33139;DHT22;19501;50.948;5.316;2023-10-31T00:06:43;10.60;99.90
33139;DHT22;19501;50.948;5.316;2023-10-31T00:09:08;10.60;99.90
33139;DHT22;19501;50.948;5.316;2023-10-31T00:11:36;10.60;99.90
33139;DHT22;19501;50.948;5.316;2023-10-31T00:14:02;10.60;99.90
33139;DHT22;19501;50.948;5.316;2023-10-31T00:16:30;10.60;99.90
33139;DHT22;19501;50.948;5.316;2023-10-31T00:18:56;10.60;99.90
33139;DHT22;19501;50.948;5.316;2023-10-31T00:21:23;10.60;99.90
33139;DHT22;19501;50.948;5.316;2023-10-31T00:23:49;10.50;99.90
33139;DHT22;19501;50.948;5.316;2023-10-31T00:26:15;10.60;99.90
33139;DHT22;19501;50.948;5.316;2023-10-31T00:28:43;10.50;99.90
33139;DHT22;19501;50.948;5.316;2023-10-31T00:31:09;10.40;99.90
33139;DHT22;19501;50.948;5.316;2023-10-31T00:33:37;10.40;99.90
33139;DHT22;19501;50.948;5.316;2023-10-31T00:36:04;10.40;99.90
33139;DHT22;19501;50.948;5.316;2023-10-31T00:38:30;10.40;99.90
33139;DHT22;19501;50.948;5.316;2023-10-31T00:40:55;10.30;99.90
33139;DHT22;19501;50.948;5.316;2023-10-31T00:43:21;10.30;99.90
33139;DHT22;19501;50.948;5.316;2023-10-31T00:45:47;10.40;99.90
33139;DHT22;19501;50.948;5.316;2023-10-31T00:48:13;10.40;99.90
33139;DHT22;19501;50.948;5.316;2023-10-31T00:50:38;10.40;99.90
33139;DHT22;19501;50.948;5.316;2023-10-31T00:53:08;10.50;99.90
33139;DHT22;19501;50.948;5.316;2023-10-31T00:55:35;10.70;99.90
33139;DHT22;19501;50.948;5.316;2023-10-31T00:58:03;10.70;99.90
33139;DHT22;19501;50.948;5.316;2023-10-31T01:00:28;10.70;99.90
33139;DHT22;19501;50.948;5.316;2023-10-31T01:02:55;10.70;99.90
33139;DHT22;19501;50.948;5.316;2023-10-31T01:05:20;10.60;99.90
33139;DHT22;19501;50.948;5.316;2023-10-31T01:07:48;10.60;99.90
33139;DHT22;19501;50.948;5.316;2023-10-31T01:10:14;10.50;99.90
33139;DHT22;19501;50.948;5.316;2023-10-31T01:12:40;10.50;99.90
33139;DHT22;19501;50.948;5.316;2023-10-31T01:15:05;10.50;99.90
33139;DHT22;19501;50.948;5.316;2023-10-31T01:17:32;10.50;99.90
33139;DHT22;19501;50.948;5.316;2023-10-31T01:19:58;10.50;99.90
33139;DHT22;19501;50.948;5.316;2023-10-31T01:22:23;10.50;99.90
33139;DHT22;19501;50.948;5.316;2023-10-31T01:24:49;10.60;99.90
33139;DHT22;19501;50.948;5.316;2023-10-31T01:27:14;10.80;99.90
33139;DHT22;19501;50.948;5.316;2023-10-31T01:29:43;10.90;99.90
33139;DHT22;19501;50.948;5.316;2023-10-31T01:32:08;10.90;99.90
33139;DHT22;19501;50.948;5.316;2023-10-31T01:34:36;10.70;99.90
33139;DHT22;19501;50.948;5.316;2023-10-31T01:37:02;10.70;99.90
33139;DHT22;19501;50.948;5.316;2023-10-31T01:39:31;10.60;99.90
33139;DHT22;19501;50.948;5.316;2023-10-31T01:41:58;10.60;99.90
33139;DHT22;19501;50.948;5.316;2023-10-31T01:44:26;10.60;99.90
33139;DHT22;19501;50.948;5.316;2023-10-31T01:46:54;10.60;99.90
33139;DHT22;19501;50.948;5.316;2023-10-31T01:49:23;10.70;99.90
33139;DHT22;19501;50.948;5.316;2023-10-31T01:51:50;10.60;99.90
33139;DHT22;19501;50.948;5.316;2023-10-31T01:54:16;10.60;99.90
33139;DHT22;19501;50.948;5.316;2023-10-31T01:56:45;10.60;99.90
33139;DHT22;19501;50.948;5.316;2023-10-31T01:59:13;10.60;99.90
33139;DHT22;19501;50.948;5.316;2023-10-31T02:01:39;10.60;99.90
33139;DHT22;19501;50.948;5.316;2023-10-31T02:04:05;10.60;99.90
33139;DHT22;19501;50.948;5.316;2023-10-31T02:06:31;10.70;99.90
33139;DHT22;19501;50.948;5.316;2023-10-31T02:08:57;10.70;99.90
33139;DHT22;19501;50.948;5.316;2023-10-31T02:11:23;10.70;99.90
33139;DHT22;19501;50.948;5.316;2023-10-31T02:13:50;10.60;99.90
33139;DHT22;19501;50.948;5.316;2023-10-31T02:16:15;10.70;99.90
33139;DHT22;19501;50.948;5.316;2023-10-31T02:18:41;10.70;99.90
33139;DHT22;19501;50.948;5.316;2023-10-31T02:21:10;10.70;99.90
33139;DHT22;19501;50.948;5.316;2023-10-31T02:23:36;10.60;99.90
33139;DHT22;19501;50.948;5.316;2023-10-31T02:26:02;10.70;99.90
33139;DHT22;19501;50.948;5.316;2023-10-31T02:28:29;10.80;99.90
33139;DHT22;19501;50.948;5.316;2023-10-31T02:30:54;10.80;99.90
33139;DHT22;19501;50.948;5.316;2023-10-31T02:33:21;10.80;99.90
33139;DHT22;19501;50.948;5.316;2023-10-31T02:35:46;10.80;99.90
33139;DHT22;19501;50.948;5.316;2023-10-31T02:38:13;10.80;99.90
33139;DHT22;19501;50.948;5.316;2023-10-31T02:40:38;10.90;99.90
33139;DHT22;19501;50.948;5.316;2023-10-31T02:43:04;10.80;99.90
33139;DHT22;19501;50.948;5.316;2023-10-31T02:45:30;10.90;99.90
33139;DHT22;19501;50.948;5.316;2023-10-31T02:47:56;10.90;99.90
33139;DHT22;19501;50.948;5.316;2023-10-31T02:50:21;10.90;99.90
33139;DHT22;19501;50.948;5.316;2023-10-31T02:52:47;10.90;99.90
33139;DHT22;19501;50.948;5.316;2023-10-31T02:55:13;10.90;99.90
33139;DHT22;19501;50.948;5.316;2023-10-31T02:57:38;10.90;99.90
33139;DHT22;19501;50.948;5.316;2023-10-31T03:00:05;10.90;99.90
33139;DHT22;19501;50.948;5.316;2023-10-31T03:02:30;11.00;99.90
33139;DHT22;19501;50.948;5.316;2023-10-31T03:04:59;11.00;99.90
33139;DHT22;19501;50.948;5.316;2023-10-31T03:07:24;11.00;99.90
33139;DHT22;19501;50.948;5.316;2023-10-31T03:09:50;11.10;99.90
33139;DHT22;19501;50.948;5.316;2023-10-31T03:12:15;11.10;99.90
33139;DHT22;19501;50.948;5.316;2023-10-31T03:14:42;11.10;99.90
33139;DHT22;19501;50.948;5.316;2023-10-31T03:17:07;11.10;99.90
33139;DHT22;19501;50.948;5.316;2023-10-31T03:19:33;11.10;99.90
33139;DHT22;19501;50.948;5.316;2023-10-31T03:21:59;11.10;99.90
33139;DHT22;19501;50.948;5.316;2023-10-31T03:24:24;11.10;99.90
33139;DHT22;19501;50.948;5.316;2023-10-31T03:26:50;11.00;99.90
33139;DHT22;19501;50.948;5.316;2023-10-31T03:29:15;11.00;99.90
33139;DHT22;19501;50.948;5.316;2023-10-31T03:31:41;11.00;99.90
33139;DHT22;19501;50.948;5.316;2023-10-31T03:34:07;11.10;99.90
33139;DHT22;19501;50.948;5.316;2023-10-31T03:36:32;11.20;99.90
33139;DHT22;19501;50.948;5.316;2023-10-31T03:38:58;11.20;99.90
33139;DHT22;19501;50.948;5.316;2023-10-31T03:41:24;11.20;99.90
33139;DHT22;19501;50.948;5.316;2023-10-31T03:43:49;11.10;99.90
33139;DHT22;19501;50.948;5.316;2023-10-31T03:46:15;11.10;99.90
33139;DHT22;19501;50.948;5.316;2023-10-31T03:48:42;11.10;99.90
33139;DHT22;19501;50.948;5.316;2023-10-31T03:51:07;11.10;99.90
33139;DHT22;19501;50.948;5.316;2023-10-31T03:53:33;11.10;99.90
33139;DHT22;19501;50.948;5.316;2023-10-31T03:55:59;11.10;99.90
33139;DHT22;19501;50.948;5.316;2023-10-31T03:58:25;11.10;99.90
33139;DHT22;19501;50.948;5.316;2023-10-31T04:00:51;11.00;99.90
33139;DHT22;19501;50.948;5.316;2023-10-31T04:03:17;11.10;99.90
33139;DHT22;19501;50.948;5.316;2023-10-31T04:05:42;11.10;99.90
33139;DHT22;19501;50.948;5.316;2023-10-31T04:08:08;11.10;99.90
33139;DHT22;19501;50.948;5.316;2023-10-31T04:10:34;11.10;99.90
33139;DHT22;19501;50.948;5.316;2023-10-31T04:12:59;11.00;99.90
33139;DHT22;19501;50.948;5.316;2023-10-31T04:15:25;11.10;99.90
33139;DHT22;19501;50.948;5.316;2023-10-31T04:17:50;11.00;99.90
33139;DHT22;19501;50.948;5.316;2023-10-31T04:20:16;11.00;99.90
33139;DHT22;19501;50.948;5.316;2023-10-31T04:22:42;11.00;99.90
33139;DHT22;19501;50.948;5.316;2023-10-31T04:25:08;10.90;99.90
33139;DHT22;19501;50.948;5.316;2023-10-31T04:27:33;11.00;99.90
33139;DHT22;19501;50.948;5.316;2023-10-31T04:29:59;10.90;99.90
33139;DHT22;19501;50.948;5.316;2023-10-31T04:32:25;10.90;99.90
33139;DHT22;19501;50.948;5.316;2023-10-31T04:34:50;10.90;99.90
33139;DHT22;19501;50.948;5.316;2023-10-31T04:37:16;10.80;99.90
33139;DHT22;19501;50.948;5.316;2023-10-31T04:39:41;10.70;99.90
33139;DHT22;19501;50.948;5.316;2023-10-31T04:42:08;10.60;99.90
33139;DHT22;19501;50.948;5.316;2023-10-31T04:44:33;10.60;99.90
33139;DHT22;19501;50.948;5.316;2023-10-31T04:46:59;10.70;99.90
33139;DHT22;19501;50.948;5.316;2023-10-31T04:49:24;10.70;99.90
33139;DHT22;19501;50.948;5.316;2023-10-31T04:51:50;10.60;99.90
33139;DHT22;19501;50.948;5.316;2023-10-31T04:54:16;10.60;99.90
33139;DHT22;19501;50.948;5.316;2023-10-31T04:56:41;10.70;99.90
33139;DHT22;19501;50.948;5.316;2023-10-31T04:59:09;10.70;99.90
33139;DHT22;19501;50.948;5.316;2023-10-31T05:01:35;10.70;99.90
33139;DHT22;19501;50.948;5.316;2023-10-31T05:04:01;10.80;99.90
33139;DHT22;19501;50.948;5.316;2023-10-31T05:06:26;10.70;99.90
33139;DHT22;19501;50.948;5.316;2023-10-31T05:08:52;10.60;99.90
33139;DHT22;19501;50.948;5.316;2023-10-31T05:11:18;10.60;99.90
33139;DHT22;19501;50.948;5.316;2023-10-31T05:13:45;10.60;99.90
33139;DHT22;19501;50.948;5.316;2023-10-31T05:16:11;10.40;99.90
33139;DHT22;19501;50.948;5.316;2023-10-31T05:18:38;10.40;99.90
33139;DHT22;19501;50.948;5.316;2023-10-31T05:21:04;10.30;99.90
33139;DHT22;19501;50.948;5.316;2023-10-31T05:23:30;10.30;99.90
33139;DHT22;19501;50.948;5.316;2023-10-31T05:25:55;10.20;99.90
33139;DHT22;19501;50.948;5.316;2023-10-31T05:28:21;10.30;99.90
33139;DHT22;19501;50.948;5.316;2023-10-31T05:30:47;10.20;99.90
33139;DHT22;19501;50.948;5.316;2023-10-31T05:33:15;10.00;99.90
33139;DHT22;19501;50.948;5.316;2023-10-31T05:35:43;9.90;99.90
33139;DHT22;19501;50.948;5.316;2023-10-31T05:38:09;9.90;99.90
33139;DHT22;19501;50.948;5.316;2023-10-31T05:40:35;10.00;99.90
33139;DHT22;19501;50.948;5.316;2023-10-31T05:43:01;9.90;99.90
33139;DHT22;19501;50.948;5.316;2023-10-31T05:45:28;10.00;99.90
33139;DHT22;19501;50.948;5.316;2023-10-31T05:47:54;10.00;99.90
33139;DHT22;19501;50.948;5.316;2023-10-31T05:50:19;10.00;99.90
33139;DHT22;19501;50.948;5.316;2023-10-31T05:52:45;9.90;99.90
33139;DHT22;19501;50.948;5.316;2023-10-31T05:55:10;9.90;99.90
33139;DHT22;19501;50.948;5.316;2023-10-31T05:57:36;10.00;99.90
33139;DHT22;19501;50.948;5.316;2023-10-31T06:00:02;10.00;99.90
33139;DHT22;19501;50.948;5.316;2023-10-31T06:02:27;10.10;99.90
33139;DHT22;19501;50.948;5.316;2023-10-31T06:04:55;10.10;99.90
33139;DHT22;19501;50.948;5.316;2023-10-31T06:07:21;10.20;99.90
33139;DHT22;19501;50.948;5.316;2023-10-31T06:09:46;10.10;99.90
33139;DHT22;19501;50.948;5.316;2023-10-31T06:12:12;10.10;99.90
33139;DHT22;19501;50.948;5.316;2023-10-31T06:14:38;10.10;99.90
33139;DHT22;19501;50.948;5.316;2023-10-31T06:17:03;10.10;99.90
33139;DHT22;19501;50.948;5.316;2023-10-31T06:19:32;10.10;99.90
33139;DHT22;19501;50.948;5.316;2023-10-31T06:21:58;10.10;99.90
33139;DHT22;19501;50.948;5.316;2023-10-31T06:24:24;10.20;99.90
33139;DHT22;19501;50.948;5.316;2023-10-31T06:26:49;10.10;99.90
33139;DHT22;19501;50.948;5.316;2023-10-31T06:29:15;10.10;99.90
33139;DHT22;19501;50.948;5.316;2023-10-31T06:31:41;10.10;99.90
33139;DHT22;19501;50.948;5.316;2023-10-31T06:34:06;10.10;99.90
33139;DHT22;19501;50.948;5.316;2023-10-31T06:36:32;10.20;99.90
33139;DHT22;19501;50.948;5.316;2023-10-31T06:38:58;10.10;99.90
33139;DHT22;19501;50.948;5.316;2023-10-31T06:41:24;10.10;99.90
33139;DHT22;19501;50.948;5.316;2023-10-31T06:43:49;10.00;99.90
33139;DHT22;19501;50.948;5.316;2023-10-31T06:46:15;10.10;99.90
33139;DHT22;19501;50.948;5.316;2023-10-31T06:48:43;10.20;99.90
33139;DHT22;19501;50.948;5.316;2023-10-31T06:51:09;10.20;99.90
33139;DHT22;19501;50.948;5.316;2023-10-31T06:53:35;10.20;99.90
33139;DHT22;19501;50.948;5.316;2023-10-31T06:56:00;10.20;99.90
33139;DHT22;19501;50.948;5.316;2023-10-31T06:58:26;10.20;99.90
33139;DHT22;19501;50.948;5.316;2023-10-31T07:00:52;10.20;99.90
33139;DHT22;19501;50.948;5.316;2023-10-31T07:03:17;10.20;99.90
33139;DHT22;19501;50.948;5.316;2023-10-31T07:05:44;10.30;99.90
33139;DHT22;19501;50.948;5.316;2023-10-31T07:08:09;10.30;99.90
33139;DHT22;19501;50.948;5.316;2023-10-31T07:10:35;10.20;99.90
33139;DHT22;19501;50.948;5.316;2023-10-31T07:13:01;10.20;99.90
33139;DHT22;19501;50.948;5.316;2023-10-31T07:15:29;10.10;99.90
33139;DHT22;19501;50.948;5.316;2023-10-31T07:17:54;10.20;99.90
33139;DHT22;19501;50.948;5.316;2023-10-31T07:20:20;10.20;99.90
33139;DHT22;19501;50.948;5.316;2023-10-31T07:22:46;10.20;99.90
33139;DHT22;19501;50.948;5.316;2023-10-31T07:25:11;10.20;99.90
33139;DHT22;19501;50.948;5.316;2023-10-31T07:27:37;10.20;99.90
33139;DHT22;19501;50.948;5.316;2023-10-31T07:30:03;10.20;99.90
33139;DHT22;19501;50.948;5.316;2023-10-31T07:32:30;10.30;99.90
33139;DHT22;19501;50.948;5.316;2023-10-31T07:34:55;10.30;99.90
33139;DHT22;19501;50.948;5.316;2023-10-31T07:37:21;10.40;99.90
33139;DHT22;19501;50.948;5.316;2023-10-31T07:39:46;10.30;99.90
33139;DHT22;19501;50.948;5.316;2023-10-31T07:42:12;10.40;99.90
33139;DHT22;19501;50.948;5.316;2023-10-31T07:44:38;10.40;99.90
33139;DHT22;19501;50.948;5.316;2023-10-31T07:47:04;10.40;99.90
33139;DHT22;19501;50.948;5.316;2023-10-31T07:49:30;10.60;99.90
33139;DHT22;19501;50.948;5.316;2023-10-31T07:51:55;10.60;99.90
33139;DHT22;19501;50.948;5.316;2023-10-31T07:54:21;10.70;99.90
33139;DHT22;19501;50.948;5.316;2023-10-31T07:56:47;10.70;99.90
33139;DHT22;19501;50.948;5.316;2023-10-31T07:59:12;10.60;99.90
33139;DHT22;19501;50.948;5.316;2023-10-31T08:01:38;10.60;99.90
33139;DHT22;19501;50.948;5.316;2023-10-31T08:04:04;10.60;99.90
33139;DHT22;19501;50.948;5.316;2023-10-31T08:06:30;10.60;99.90
33139;DHT22;19501;50.948;5.316;2023-10-31T08:08:55;10.70;99.90
33139;DHT22;19501;50.948;5.316;2023-10-31T08:11:21;10.60;99.90
33139;DHT22;19501;50.948;5.316;2023-10-31T08:13:47;10.80;99.90
33139;DHT22;19501;50.948;5.316;2023-10-31T08:16:17;10.80;99.90
33139;DHT22;19501;50.948;5.316;2023-10-31T08:18:44;10.80;99.90
33139;DHT22;19501;50.948;5.316;2023-10-31T08:21:11;10.90;99.90
33139;DHT22;19501;50.948;5.316;2023-10-31T08:23:37;11.00;99.90
33139;DHT22;19501;50.948;5.316;2023-10-31T08:26:03;11.00;99.90
33139;DHT22;19501;50.948;5.316;2023-10-31T08:28:28;11.10;99.90
33139;DHT22;19501;50.948;5.316;2023-10-31T08:30:57;11.10;99.90
33139;DHT22;19501;50.948;5.316;2023-10-31T08:33:23;11.10;99.90
33139;DHT22;19501;50.948;5.316;2023-10-31T08:35:49;11.30;99.90
33139;DHT22;19501;50.948;5.316;2023-10-31T08:38:15;11.30;99.90
33139;DHT22;19501;50.948;5.316;2023-10-31T08:40:43;11.50;99.90
33139;DHT22;19501;50.948;5.316;2023-10-31T08:43:09;11.60;99.90
33139;DHT22;19501;50.948;5.316;2023-10-31T08:45:35;11.40;99.90
33139;DHT22;19501;50.948;5.316;2023-10-31T08:48:01;11.40;99.90
33139;DHT22;19501;50.948;5.316;2023-10-31T08:50:26;11.40;99.90
33139;DHT22;19501;50.948;5.316;2023-10-31T08:52:52;11.20;99.90
33139;DHT22;19501;50.948;5.316;2023-10-31T08:55:18;11.30;99.90
33139;DHT22;19501;50.948;5.316;2023-10-31T08:57:44;11.30;99.90
33139;DHT22;19501;50.948;5.316;2023-10-31T09:00:10;11.20;99.90
33139;DHT22;19501;50.948;5.316;2023-10-31T09:02:35;11.20;99.90
33139;DHT22;19501;50.948;5.316;2023-10-31T09:05:01;11.30;99.90
33139;DHT22;19501;50.948;5.316;2023-10-31T09:07:27;11.60;99.90
33139;DHT22;19501;50.948;5.316;2023-10-31T09:09:53;11.60;99.90
33139;DHT22;19501;50.948;5.316;2023-10-31T09:12:18;11.50;99.90
33139;DHT22;19501;50.948;5.316;2023-10-31T09:14:44;11.50;99.90
33139;DHT22;19501;50.948;5.316;2023-10-31T09:17:10;11.60;99.90
33139;DHT22;19501;50.948;5.316;2023-10-31T09:19:36;11.70;99.90
33139;DHT22;19501;50.948;5.316;2023-10-31T09:22:01;11.90;99.90
33139;DHT22;19501;50.948;5.316;2023-10-31T09:24:27;11.90;99.90
33139;DHT22;19501;50.948;5.316;2023-10-31T09:26:53;11.80;99.90
33139;DHT22;19501;50.948;5.316;2023-10-31T09:29:18;11.80;99.90
33139;DHT22;19501;50.948;5.316;2023-10-31T09:31:44;11.90;99.90
33139;DHT22;19501;50.948;5.316;2023-10-31T09:34:10;11.90;99.90
33139;DHT22;19501;50.948;5.316;2023-10-31T09:36:36;11.90;99.90
33139;DHT22;19501;50.948;5.316;2023-10-31T09:39:01;12.10;99.90
33139;DHT22;19501;50.948;5.316;2023-10-31T09:41:28;12.30;99.90
33139;DHT22;19501;50.948;5.316;2023-10-31T09:43:54;12.40;99.90
33139;DHT22;19501;50.948;5.316;2023-10-31T09:46:21;12.40;99.90
33139;DHT22;19501;50.948;5.316;2023-10-31T09:48:47;12.50;99.90
33139;DHT22;19501;50.948;5.316;2023-10-31T09:51:13;12.60;99.90
33139;DHT22;19501;50.948;5.316;2023-10-31T09:53:41;12.70;99.90
33139;DHT22;19501;50.948;5.316;2023-10-31T09:56:07;12.60;99.90
33139;DHT22;19501;50.948;5.316;2023-10-31T09:58:33;12.60;99.90
33139;DHT22;19501;50.948;5.316;2023-10-31T10:01:00;12.70;99.90
33139;DHT22;19501;50.948;5.316;2023-10-31T10:03:27;12.80;99.90
33139;DHT22;19501;50.948;5.316;2023-10-31T10:05:52;12.40;99.90
33139;DHT22;19501;50.948;5.316;2023-10-31T10:08:19;12.40;99.90
33139;DHT22;19501;50.948;5.316;2023-10-31T10:10:45;12.40;99.90
33139;DHT22;19501;50.948;5.316;2023-10-31T10:13:12;12.40;99.90
33139;DHT22;19501;50.948;5.316;2023-10-31T10:16:04;12.50;99.90
33139;DHT22;19501;50.948;5.316;2023-10-31T10:18:31;12.50;99.90
33139;DHT22;19501;50.948;5.316;2023-10-31T10:21:02;12.50;99.90
33139;DHT22;19501;50.948;5.316;2023-10-31T10:23:32;12.40;99.90
33139;DHT22;19501;50.948;5.316;2023-10-31T10:25:59;12.40;99.90
33139;DHT22;19501;50.948;5.316;2023-10-31T10:28:25;12.20;99.90
33139;DHT22;19501;50.948;5.316;2023-10-31T10:30:52;12.20;99.90
33139;DHT22;19501;50.948;5.316;2023-10-31T10:33:19;12.30;99.90
33139;DHT22;19501;50.948;5.316;2023-10-31T10:35:45;12.30;99.90
33139;DHT22;19501;50.948;5.316;2023-10-31T10:38:13;12.40;99.90
33139;DHT22;19501;50.948;5.316;2023-10-31T10:40:41;12.50;99.90
33139;DHT22;19501;50.948;5.316;2023-10-31T10:43:20;12.40;99.90
33139;DHT22;19501;50.948;5.316;2023-10-31T10:45:46;12.50;99.90
33139;DHT22;19501;50.948;5.316;2023-10-31T10:48:15;12.60;99.90
33139;DHT22;19501;50.948;5.316;2023-10-31T10:50:43;12.50;99.90
33139;DHT22;19501;50.948;5.316;2023-10-31T10:53:21;12.60;99.90
33139;DHT22;19501;50.948;5.316;2023-10-31T10:56:09;12.70;99.90
33139;DHT22;19501;50.948;5.316;2023-10-31T10:58:50;12.70;99.90
33139;DHT22;19501;50.948;5.316;2023-10-31T11:01:17;12.50;99.90
33139;DHT22;19501;50.948;5.316;2023-10-31T11:03:45;12.70;99.90
33139;DHT22;19501;50.948;5.316;2023-10-31T11:06:12;12.70;99.90
33139;DHT22;19501;50.948;5.316;2023-10-31T11:08:40;12.90;99.90
33139;DHT22;19501;50.948;5.316;2023-10-31T11:11:06;13.00;99.90
33139;DHT22;19501;50.948;5.316;2023-10-31T11:13:34;13.20;99.90
33139;DHT22;19501;50.948;5.316;2023-10-31T11:16:07;13.10;99.90
33139;DHT22;19501;50.948;5.316;2023-10-31T11:18:35;13.00;99.90
33139;DHT22;19501;50.948;5.316;2023-10-31T11:21:04;13.10;99.90
33139;DHT22;19501;50.948;5.316;2023-10-31T11:23:29;13.10;99.90
33139;DHT22;19501;50.948;5.316;2023-10-31T11:25:55;13.20;99.90
33139;DHT22;19501;50.948;5.316;2023-10-31T11:28:21;13.40;99.90
33139;DHT22;19501;50.948;5.316;2023-10-31T11:30:50;13.30;99.90
33139;DHT22;19501;50.948;5.316;2023-10-31T11:33:20;13.30;99.90
33139;DHT22;19501;50.948;5.316;2023-10-31T11:35:51;13.40;99.90
33139;DHT22;19501;50.948;5.316;2023-10-31T11:38:16;13.30;99.90
33139;DHT22;19501;50.948;5.316;2023-10-31T11:41:01;13.50;99.90
33139;DHT22;19501;50.948;5.316;2023-10-31T11:46:04;13.50;99.90
33139;DHT22;19501;50.948;5.316;2023-10-31T11:48:50;13.70;99.90
33139;DHT22;19501;50.948;5.316;2023-10-31T11:51:17;13.90;99.90
33139;DHT22;19501;50.948;5.316;2023-10-31T11:53:43;13.90;99.90
33139;DHT22;19501;50.948;5.316;2023-10-31T11:56:10;14.00;99.90
33139;DHT22;19501;50.948;5.316;2023-10-31T11:58:37;13.90;99.90
33139;DHT22;19501;50.948;5.316;2023-10-31T12:01:07;13.70;99.90
33139;DHT22;19501;50.948;5.316;2023-10-31T12:03:42;13.60;99.90
33139;DHT22;19501;50.948;5.316;2023-10-31T12:06:09;13.80;99.90
33139;DHT22;19501;50.948;5.316;2023-10-31T12:08:40;14.60;99.90
33139;DHT22;19501;50.948;5.316;2023-10-31T12:11:21;15.00;99.90
33139;DHT22;19501;50.948;5.316;2023-10-31T12:16:29;14.80;99.90
33139;DHT22;19501;50.948;5.316;2023-10-31T12:19:04;14.30;99.90
33139;DHT22;19501;50.948;5.316;2023-10-31T12:21:42;14.30;99.90
33139;DHT22;19501;50.948;5.316;2023-10-31T12:24:13;14.10;99.90
33139;DHT22;19501;50.948;5.316;2023-10-31T12:26:39;13.80;99.90
33139;DHT22;19501;50.948;5.316;2023-10-31T12:29:21;13.60;99.90
33139;DHT22;19501;50.948;5.316;2023-10-31T12:31:51;13.50;99.90
33139;DHT22;19501;50.948;5.316;2023-10-31T12:34:24;13.40;99.90
33139;DHT22;19501;50.948;5.316;2023-10-31T12:36:54;13.40;99.90
33139;DHT22;19501;50.948;5.316;2023-10-31T12:39:27;13.40;99.90
33139;DHT22;19501;50.948;5.316;2023-10-31T12:41:53;13.20;99.90
33139;DHT22;19501;50.948;5.316;2023-10-31T12:44:26;13.20;99.90
33139;DHT22;19501;50.948;5.316;2023-10-31T12:46:53;13.20;99.90
33139;DHT22;19501;50.948;5.316;2023-10-31T12:49:19;13.30;99.90
33139;DHT22;19501;50.948;5.316;2023-10-31T12:52:04;13.30;99.90
33139;DHT22;19501;50.948;5.316;2023-10-31T12:54:33;13.20;99.90
33139;DHT22;19501;50.948;5.316;2023-10-31T12:57:09;13.00;99.90
33139;DHT22;19501;50.948;5.316;2023-10-31T12:59:36;13.10;99.90
33139;DHT22;19501;50.948;5.316;2023-10-31T13:02:03;13.10;99.90
33139;DHT22;19501;50.948;5.316;2023-10-31T13:04:31;13.00;99.90
33139;DHT22;19501;50.948;5.316;2023-10-31T13:07:05;13.00;99.90
33139;DHT22;19501;50.948;5.316;2023-10-31T13:09:32;13.00;99.90
33139;DHT22;19501;50.948;5.316;2023-10-31T13:12:02;13.10;99.90
33139;DHT22;19501;50.948;5.316;2023-10-31T13:14:28;13.00;99.90
33139;DHT22;19501;50.948;5.316;2023-10-31T13:16:54;13.00;99.90
33139;DHT22;19501;50.948;5.316;2023-10-31T13:19:19;13.00;99.90
33139;DHT22;19501;50.948;5.316;2023-10-31T13:21:48;12.90;99.90
33139;DHT22;19501;50.948;5.316;2023-10-31T13:24:14;13.00;99.90
33139;DHT22;19501;50.948;5.316;2023-10-31T13:26:40;13.00;99.90
33139;DHT22;19501;50.948;5.316;2023-10-31T13:29:05;12.90;99.90
33139;DHT22;19501;50.948;5.316;2023-10-31T13:31:31;12.90;99.90
33139;DHT22;19501;50.948;5.316;2023-10-31T13:33:57;12.70;99.90
33139;DHT22;19501;50.948;5.316;2023-10-31T13:36:22;12.70;99.90
33139;DHT22;19501;50.948;5.316;2023-10-31T13:38:48;12.60;99.90
33139;DHT22;19501;50.948;5.316;2023-10-31T13:41:16;12.50;99.90
33139;DHT22;19501;50.948;5.316;2023-10-31T13:43:42;12.30;99.90
33139;DHT22;19501;50.948;5.316;2023-10-31T13:46:07;12.20;99.90
33139;DHT22;19501;50.948;5.316;2023-10-31T13:48:33;12.10;99.90
33139;DHT22;19501;50.948;5.316;2023-10-31T13:50:59;12.00;99.90
33139;DHT22;19501;50.948;5.316;2023-10-31T13:53:25;12.00;99.90
33139;DHT22;19501;50.948;5.316;2023-10-31T13:55:51;12.00;99.90
33139;DHT22;19501;50.948;5.316;2023-10-31T13:58:16;11.90;99.90
33139;DHT22;19501;50.948;5.316;2023-10-31T14:00:44;11.80;99.90
33139;DHT22;19501;50.948;5.316;2023-10-31T14:03:13;11.80;99.90
33139;DHT22;19501;50.948;5.316;2023-10-31T14:05:38;11.80;99.90
33139;DHT22;19501;50.948;5.316;2023-10-31T14:08:09;11.80;99.90
33139;DHT22;19501;50.948;5.316;2023-10-31T14:10:36;11.80;99.90
33139;DHT22;19501;50.948;5.316;2023-10-31T14:13:05;11.80;99.90
33139;DHT22;19501;50.948;5.316;2023-10-31T14:15:30;11.80;99.90
33139;DHT22;19501;50.948;5.316;2023-10-31T14:17:57;11.80;99.90
33139;DHT22;19501;50.948;5.316;2023-10-31T14:20:23;11.80;99.90
33139;DHT22;19501;50.948;5.316;2023-10-31T14:22:49;11.70;99.90
33139;DHT22;19501;50.948;5.316;2023-10-31T14:25:15;11.60;99.90
33139;DHT22;19501;50.948;5.316;2023-10-31T14:27:41;11.60;99.90
33139;DHT22;19501;50.948;5.316;2023-10-31T14:30:08;11.60;99.90
33139;DHT22;19501;50.948;5.316;2023-10-31T14:32:34;11.60;99.90
33139;DHT22;19501;50.948;5.316;2023-10-31T14:35:00;11.60;99.90
33139;DHT22;19501;50.948;5.316;2023-10-31T14:37:25;11.60;99.90
33139;DHT22;19501;50.948;5.316;2023-10-31T14:39:51;11.60;99.90
33139;DHT22;19501;50.948;5.316;2023-10-31T14:42:17;11.60;99.90
33139;DHT22;19501;50.948;5.316;2023-10-31T14:44:43;11.60;99.90
33139;DHT22;19501;50.948;5.316;2023-10-31T14:47:08;11.60;99.90
33139;DHT22;19501;50.948;5.316;2023-10-31T14:49:35;11.60;99.90
33139;DHT22;19501;50.948;5.316;2023-10-31T14:52:00;11.70;99.90
33139;DHT22;19501;50.948;5.316;2023-10-31T14:54:26;11.80;99.90
33139;DHT22;19501;50.948;5.316;2023-10-31T14:56:52;11.80;99.90
33139;DHT22;19501;50.948;5.316;2023-10-31T14:59:18;11.90;99.90
33139;DHT22;19501;50.948;5.316;2023-10-31T15:01:43;12.00;99.90
33139;DHT22;19501;50.948;5.316;2023-10-31T15:04:09;11.90;99.90
33139;DHT22;19501;50.948;5.316;2023-10-31T15:06:36;12.00;99.90
33139;DHT22;19501;50.948;5.316;2023-10-31T15:09:02;12.20;99.90
33139;DHT22;19501;50.948;5.316;2023-10-31T15:11:28;12.30;99.90
33139;DHT22;19501;50.948;5.316;2023-10-31T15:13:54;12.20;99.90
33139;DHT22;19501;50.948;5.316;2023-10-31T15:16:19;12.20;99.90
33139;DHT22;19501;50.948;5.316;2023-10-31T15:18:45;12.10;99.90
33139;DHT22;19501;50.948;5.316;2023-10-31T15:21:11;12.10;99.90
33139;DHT22;19501;50.948;5.316;2023-10-31T15:23:37;12.20;99.90
33139;DHT22;19501;50.948;5.316;2023-10-31T15:26:03;12.20;99.90
33139;DHT22;19501;50.948;5.316;2023-10-31T15:28:29;12.20;99.90
33139;DHT22;19501;50.948;5.316;2023-10-31T15:30:55;12.10;99.90
33139;DHT22;19501;50.948;5.316;2023-10-31T15:33:21;12.00;99.90